CheckWX is a tool to help pilots better visualize weather data.  It is not intended as a substitute for an official pre-flight weather briefing.

09:00:19 UTC

EGDY METAR
RNAS Yeovilton Airport
Yeovil, United Kingdom
Current

40 mins ago

EGDY 060820Z 22011KT 9999 FEW010 SCT022 12/10 Q1006 TEMPO SCT025 RMK WHT TEMPO BLU
Observed
Dec-6 @ 08:20 UTC
Wind
  • 220° at 11 KTS
Visibility
10,000+ meters
Flight Rules
VFR
Cloud Levels
  • Few at 1,000' AGL
  • Scattered at 2,200' AGL
Temperature
12°C / 54°F
Dewpoint
10°C / 50°F
Humidity
88%
Altimeter
29.7" Hg
Pressure
1005.92 hPa
Previous

1 hour ago

EGDY 060750Z 22011G21KT 9999 SCT012 SCT022 12/10 Q1006 GRN BECMG BKN018 RMK GRN BECMG WHT
Observed
Dec-6 @ 07:50 UTC
Wind
  • 220° at 11 KTS
  • Gusting to 21 KTS
Visibility
10,000+ meters
Flight Rules
VFR
Cloud Levels
  • Scattered at 1,200' AGL
  • Scattered at 2,200' AGL
Temperature
12°C / 54°F
Dewpoint
10°C / 50°F
Humidity
88%
Altimeter
29.7" Hg
Pressure
1005.92 hPa
Previous

2 hours ago

EGDY 060650Z 22012KT 9999 SCT012 BKN022 12/10 Q1007 BECMG BKN018 RMK GRN BECMG WHT
Observed
Dec-6 @ 06:50 UTC
Wind
  • 220° at 12 KTS
Visibility
10,000+ meters
Flight Rules
MVFR
Cloud Levels
  • Scattered at 1,200' AGL
  • Broken at 2,200' AGL
Temperature
12°C / 54°F
Dewpoint
10°C / 50°F
Humidity
88%
Altimeter
29.73" Hg
Pressure
1006.92 hPa